Time,TemperatureF,DewpointF,PressureIn,WindDirection,WindDirectionDegrees,WindSpeedMPH,WindSpeedGustMPH,Humidity,HourlyPrecipIn,Conditions,Clouds,dailyrainin,SoftwareType,DateUTC
2013-05-10 00:02:00,55.0,-99.9,30.19,WSW,237,5.0,8.0,-999,-99.99,,,-99.99,,2013-05-10 07:02:00,
2013-05-10 00:12:00,55.0,-99.9,30.19,SW,226,7.0,9.0,-999,-99.99,,,-99.99,,2013-05-10 07:12:00,
2013-05-10 00:22:00,54.0,-99.9,30.19,SW,227,6.0,9.0,-999,-99.99,,,-99.99,,2013-05-10 07:22:00,
2013-05-10 00:32:00,54.0,-99.9,30.19,SW,228,8.0,9.0,-999,-99.99,,,-99.99,,2013-05-10 07:32:00,
2013-05-10 00:42:00,54.0,-99.9,30.19,SW,227,8.0,10.0,-999,-99.99,,,-99.99,,2013-05-10 07:42:00,
2013-05-10 00:52:00,54.0,-99.9,30.19,SW,225,7.0,9.0,-999,-99.99,,,-99.99,,2013-05-10 07:52:00,
2013-05-10 01:02:00,55.0,-99.9,30.20,SW,232,4.0,6.0,-999,-99.99,,,-99.99,,2013-05-10 08:02:00,
2013-05-10 01:12:00,55.0,-99.9,30.20,SW,232,4.0,6.0,-999,-99.99,,,-99.99,,2013-05-10 08:12:00,
2013-05-10 01:22:00,55.0,-99.9,30.20,SW,232,4.0,6.0,-999,-99.99,,,-99.99,,2013-05-10 08:22:00,
2013-05-10 01:32:00,55.0,-99.9,30.20,SW,233,2.0,3.0,-999,-99.99,,,-99.99,,2013-05-10 08:32:00,
2013-05-10 01:42:00,55.0,-99.9,30.20,SSW,201,3.0,4.0,-999,-99.99,,,-99.99,,2013-05-10 08:42:00,
2013-05-10 01:52:00,55.0,-99.9,30.20,SSW,201,3.0,4.0,-999,-99.99,,,-99.99,,2013-05-10 08:52:00,
2013-05-10 02:02:00,54.0,-99.9,30.19,SE,141,4.0,7.0,-999,-99.99,,,-99.99,,2013-05-10 09:02:00,
2013-05-10 02:11:00,54.0,-99.9,30.19,SE,141,4.0,7.0,-999,-99.99,,,-99.99,,2013-05-10 09:11:00,
2013-05-10 02:22:00,54.0,-99.9,30.18,SE,134,5.0,6.0,-999,-99.99,,,-99.99,,2013-05-10 09:22:00,
2013-05-10 02:33:00,54.0,-99.9,30.18,SSE,149,4.0,5.0,-999,-99.99,,,-99.99,,2013-05-10 09:33:00,
2013-05-10 02:43:00,54.0,-99.9,30.18,SSE,149,4.0,5.0,-999,-99.99,,,-99.99,,2013-05-10 09:43:00,
2013-05-10 02:53:00,54.0,-99.9,30.18,SE,138,4.0,7.0,-999,-99.99,,,-99.99,,2013-05-10 09:53:00,
2013-05-10 03:03:00,54.0,-99.9,30.17,South,183,6.0,8.0,-999,-99.99,,,-99.99,,2013-05-10 10:03:00,
2013-05-10 03:12:00,-999.0,-99.9,-100.00,South,187,6.0,9.0,-999,-99.99,,,-99.99,,2013-05-10 10:12:00,
2013-05-10 03:23:00,-999.0,-99.9,-100.00,SE,133,4.0,7.0,-999,-99.99,,,-99.99,,2013-05-10 10:23:00,
2013-05-10 03:33:00,54.0,-99.9,30.17,SSE,156,5.0,7.0,-999,-99.99,,,-99.99,,2013-05-10 10:33:00,
2013-05-10 03:42:00,53.0,-99.9,30.17,SE,130,4.0,7.0,-999,-99.99,,,-99.99,,2013-05-10 10:42:00,
2013-05-10 03:53:00,53.0,-99.9,30.17,SE,142,2.0,6.0,-999,-99.99,,,-99.99,,2013-05-10 10:53:00,
2013-05-10 04:02:00,54.0,-99.9,30.16,South,191,3.0,5.0,-999,-99.99,,,-99.99,,2013-05-10 11:02:00,
2013-05-10 04:12:00,54.0,-99.9,30.16,South,178,5.0,6.0,-999,-99.99,,,-99.99,,2013-05-10 11:12:00,
2013-05-10 04:22:00,54.0,-99.9,30.16,East,101,1.0,3.0,-999,-99.99,,,-99.99,,2013-05-10 11:22:00,
2013-05-10 04:32:00,54.0,-99.9,30.16,ESE,103,2.0,3.0,-999,-99.99,,,-99.99,,2013-05-10 11:32:00,
2013-05-10 04:42:00,54.0,-99.9,30.15,SW,227,2.0,4.0,-999,-99.99,,,-99.99,,2013-05-10 11:42:00,
2013-05-10 04:52:00,54.0,-99.9,30.15,South,186,3.0,5.0,-999,-99.99,,,-99.99,,2013-05-10 11:52:00,
2013-05-10 05:02:00,54.0,-99.9,30.15,SE,135,3.0,6.0,-999,-99.99,,,-99.99,,2013-05-10 12:02:00,
2013-05-10 05:12:00,54.0,-99.9,30.15,SE,135,3.0,6.0,-999,-99.99,,,-99.99,,2013-05-10 12:12:00,
2013-05-10 05:22:00,53.0,-99.9,30.15,ESE,122,4.0,7.0,-999,-99.99,,,-99.99,,2013-05-10 12:22:00,
2013-05-10 05:32:00,53.0,-99.9,30.15,SE,124,5.0,7.0,-999,-99.99,,,-99.99,,2013-05-10 12:32:00,
2013-05-10 05:42:00,53.0,-99.9,30.15,SE,130,5.0,7.0,-999,-99.99,,,-99.99,,2013-05-10 12:42:00,
2013-05-10 05:52:00,53.0,-99.9,30.15,SE,136,4.0,6.0,-999,-99.99,,,-99.99,,2013-05-10 12:52:00,
2013-05-10 06:01:00,53.0,-99.9,30.15,SE,144,4.0,4.0,-999,-99.99,,,-99.99,,2013-05-10 13:01:00,
2013-05-10 06:11:00,54.0,-99.9,30.15,SSE,154,4.0,5.0,-999,-99.99,,,-99.99,,2013-05-10 13:11:00,
2013-05-10 06:21:00,54.0,-99.9,30.15,SSE,162,2.0,4.0,-999,-99.99,,,-99.99,,2013-05-10 13:21:00,
2013-05-10 06:32:00,54.0,-99.9,30.16,South,185,4.0,6.0,-999,-99.99,,,-99.99,,2013-05-10 13:32:00,
2013-05-10 06:42:00,54.0,-99.9,30.16,South,173,6.0,8.0,-999,-99.99,,,-99.99,,2013-05-10 13:42:00,
2013-05-10 06:52:00,54.0,-99.9,30.16,South,172,5.0,8.0,-999,-99.99,,,-99.99,,2013-05-10 13:52:00,
2013-05-10 07:02:00,54.0,-99.9,30.17,South,176,5.0,7.0,-999,-99.99,,,-99.99,,2013-05-10 14:02:00,
2013-05-10 07:11:00,54.0,-99.9,30.17,South,176,5.0,8.0,-999,-99.99,,,-99.99,,2013-05-10 14:11:00,
2013-05-10 07:22:00,54.0,-99.9,30.18,SSE,161,5.0,7.0,-999,-99.99,,,-99.99,,2013-05-10 14:22:00,
2013-05-10 07:32:00,54.0,-99.9,30.18,South,182,6.0,8.0,-999,-99.99,,,-99.99,,2013-05-10 14:32:00,
2013-05-10 07:42:00,54.0,-99.9,30.18,SSE,158,8.0,9.0,-999,-99.99,,,-99.99,,2013-05-10 14:42:00,
2013-05-10 07:52:00,54.0,-99.9,30.18,SSE,160,4.0,8.0,-999,-99.99,,,-99.99,,2013-05-10 14:52:00,
2013-05-10 08:02:00,54.0,-99.9,30.18,SSE,155,6.0,8.0,-999,-99.99,,,-99.99,,2013-05-10 15:02:00,
2013-05-10 08:20:00,-999.0,-99.9,30.18,SE,131,6.0,8.0,-999,-99.99,,,-99.99,,2013-05-10 15:20:00,
2013-05-10 08:32:00,54.0,-99.9,30.18,SE,137,6.0,9.0,-999,-99.99,,,-99.99,,2013-05-10 15:32:00,
2013-05-10 08:43:00,54.0,-99.9,30.18,SE,136,6.0,11.0,-999,-99.99,,,-99.99,,2013-05-10 15:43:00,
2013-05-10 08:53:00,54.0,-99.9,30.18,SE,144,6.0,10.0,-999,-99.99,,,-99.99,,2013-05-10 15:53:00,
2013-05-10 09:02:00,54.0,-99.9,30.19,SSE,147,6.0,9.0,-999,-99.99,,,-99.99,,2013-05-10 16:02:00,
2013-05-10 09:12:00,54.0,-99.9,30.19,SE,142,8.0,12.0,-999,-99.99,,,-99.99,,2013-05-10 16:12:00,
2013-05-10 09:23:00,54.0,-99.9,30.19,SSE,166,8.0,10.0,-999,-99.99,,,-99.99,,2013-05-10 16:23:00,
2013-05-10 09:33:00,54.0,-99.9,30.19,South,171,9.0,12.0,-999,-99.99,,,-99.99,,2013-05-10 16:33:00,
2013-05-10 09:43:00,54.0,-99.9,30.19,SSE,167,9.0,12.0,-999,-99.99,,,-99.99,,2013-05-10 16:43:00,
2013-05-10 09:53:00,54.0,-99.9,30.18,SSE,158,12.0,15.0,-999,-99.99,,,-99.99,,2013-05-10 16:53:00,
2013-05-10 10:02:00,54.0,-99.9,30.18,SSE,158,12.0,15.0,-999,-99.99,,,-99.99,,2013-05-10 17:02:00,
2013-05-10 10:12:00,54.0,-99.9,30.18,SSE,158,12.0,15.0,-999,-99.99,,,-99.99,,2013-05-10 17:12:00,
2013-05-10 10:22:00,55.0,-99.9,30.19,SSE,168,12.0,14.0,-999,-99.99,,,-99.99,,2013-05-10 17:22:00,
2013-05-10 10:32:00,54.0,-99.9,30.20,South,183,10.0,14.0,-999,-99.99,,,-99.99,,2013-05-10 17:32:00,
2013-05-10 10:42:00,55.0,-99.9,30.20,SSE,167,8.0,13.0,-999,-99.99,,,-99.99,,2013-05-10 17:42:00,
2013-05-10 10:52:00,55.0,-99.9,30.20,SSW,201,8.0,11.0,-999,-99.99,,,-99.99,,2013-05-10 17:52:00,
2013-05-10 11:11:00,-999.0,-99.9,30.20,SSW,206,8.0,12.0,-999,-99.99,,,-99.99,,2013-05-10 18:11:00,
2013-05-10 11:22:00,55.0,-99.9,30.20,SSW,201,10.0,13.0,-999,-99.99,,,-99.99,,2013-05-10 18:22:00,
2013-05-10 11:35:00,55.0,-99.9,30.20,SSW,200,11.0,14.0,-999,-99.99,,,-99.99,,2013-05-10 18:35:00,
2013-05-10 11:43:00,55.0,-99.9,30.20,SSW,197,13.0,17.0,-999,-99.99,,,-99.99,,2013-05-10 18:43:00,
2013-05-10 11:54:00,55.0,-99.9,30.20,SSW,204,11.0,16.0,-999,-99.99,,,-99.99,,2013-05-10 18:54:00,
2013-05-10 12:02:00,54.0,-99.9,30.20,SSW,204,11.0,17.0,-999,-99.99,,,-99.99,,2013-05-10 19:02:00,
2013-05-10 12:11:00,55.0,-99.9,30.20,SSW,204,11.0,17.0,-999,-99.99,,,-99.99,,2013-05-10 19:11:00,
2013-05-10 12:22:00,55.0,-99.9,30.20,SSW,204,11.0,17.0,-999,-99.99,,,-99.99,,2013-05-10 19:22:00,
2013-05-10 12:32:00,55.0,-99.9,30.20,SSW,204,11.0,17.0,-999,-99.99,,,-99.99,,2013-05-10 19:32:00,
2013-05-10 12:42:00,54.0,-99.9,30.19,SSW,195,15.0,19.0,-999,-99.99,,,-99.99,,2013-05-10 19:42:00,
2013-05-10 12:52:00,54.0,-99.9,30.19,SSW,196,15.0,19.0,-999,-99.99,,,-99.99,,2013-05-10 19:52:00,
2013-05-10 13:02:00,54.0,-99.9,30.19,South,188,18.0,21.0,-999,-99.99,,,-99.99,,2013-05-10 20:02:00,
2013-05-10 13:12:00,54.0,-99.9,30.19,South,188,18.0,21.0,-999,-99.99,,,-99.99,,2013-05-10 20:12:00,
2013-05-10 13:22:00,55.0,-99.9,30.19,South,183,18.0,22.0,-999,-99.99,,,-99.99,,2013-05-10 20:22:00,
2013-05-10 13:32:00,55.0,-99.9,30.18,South,187,18.0,21.0,-999,-99.99,,,-99.99,,2013-05-10 20:32:00,
2013-05-10 13:42:00,55.0,-99.9,30.18,South,190,17.0,20.0,-999,-99.99,,,-99.99,,2013-05-10 20:42:00,
2013-05-10 13:52:00,56.0,-99.9,30.18,SSW,194,14.0,19.0,-999,-99.99,,,-99.99,,2013-05-10 20:52:00,
2013-05-10 14:02:00,56.0,-99.9,30.17,SSW,193,15.0,18.0,-999,-99.99,,,-99.99,,2013-05-10 21:02:00,
2013-05-10 14:11:00,56.0,-99.9,30.17,South,187,17.0,19.0,-999,-99.99,,,-99.99,,2013-05-10 21:11:00,
2013-05-10 14:25:00,56.0,-99.9,30.17,SSW,192,14.0,17.0,-999,-99.99,,,-99.99,,2013-05-10 21:25:00,
2013-05-10 14:32:00,56.0,-99.9,30.17,SSW,192,14.0,17.0,-999,-99.99,,,-99.99,,2013-05-10 21:32:00,
2013-05-10 14:43:00,57.0,-99.9,30.17,SSW,193,11.0,15.0,-999,-99.99,,,-99.99,,2013-05-10 21:43:00,
2013-05-10 14:53:00,57.0,-99.9,30.17,SSW,199,12.0,15.0,-999,-99.99,,,-99.99,,2013-05-10 21:53:00,
2013-05-10 15:03:00,58.0,-99.9,30.17,SSW,201,10.0,14.0,-999,-99.99,,,-99.99,,2013-05-10 22:03:00,
2013-05-10 15:13:00,57.0,-99.9,30.17,SSW,206,10.0,14.0,-999,-99.99,,,-99.99,,2013-05-10 22:13:00,
2013-05-10 15:22:00,58.0,-99.9,30.16,SSW,206,9.0,13.0,-999,-99.99,,,-99.99,,2013-05-10 22:22:00,
2013-05-10 15:32:00,58.0,-99.9,30.16,SSW,199,13.0,17.0,-999,-99.99,,,-99.99,,2013-05-10 22:32:00,
2013-05-10 15:42:00,58.0,-99.9,30.16,SSW,199,13.0,17.0,-999,-99.99,,,-99.99,,2013-05-10 22:42:00,
2013-05-10 15:53:00,57.0,-99.9,30.15,SSW,199,13.0,19.0,-999,-99.99,,,-99.99,,2013-05-10 22:53:00,
2013-05-10 16:02:00,57.0,-99.9,30.15,SSW,195,15.0,19.0,-999,-99.99,,,-99.99,,2013-05-10 23:02:00,
2013-05-10 16:12:00,57.0,-99.9,30.14,SSW,197,14.0,19.0,-999,-99.99,,,-99.99,,2013-05-10 23:12:00,
2013-05-10 16:22:00,58.0,-99.9,30.14,SSW,198,11.0,16.0,-999,-99.99,,,-99.99,,2013-05-10 23:22:00,
2013-05-10 16:33:00,59.0,-99.9,30.14,SSW,207,8.0,13.0,-999,-99.99,,,-99.99,,2013-05-10 23:33:00,
2013-05-10 16:42:00,59.0,-99.9,30.14,SSW,194,9.0,12.0,-999,-99.99,,,-99.99,,2013-05-10 23:42:00,
2013-05-10 16:52:00,-999.0,-99.9,-100.00,SSW,197,9.0,13.0,-999,-99.99,,,-99.99,,2013-05-10 23:52:00,
2013-05-10 17:02:00,59.0,-99.9,30.13,SW,219,11.0,16.0,-999,-99.99,,,-99.99,,2013-05-11 00:02:00,
2013-05-10 17:11:00,59.0,-99.9,30.13,SSW,213,9.0,15.0,-999,-99.99,,,-99.99,,2013-05-11 00:11:00,
2013-05-10 17:22:00,61.0,-99.9,30.13,SW,216,7.0,10.0,-999,-99.99,,,-99.99,,2013-05-11 00:22:00,
2013-05-10 17:32:00,59.0,-99.9,30.12,SSW,201,9.0,14.0,-999,-99.99,,,-99.99,,2013-05-11 00:32:00,
2013-05-10 17:42:00,59.0,-99.9,30.12,SSW,198,10.0,15.0,-999,-99.99,,,-99.99,,2013-05-11 00:42:00,
2013-05-10 17:52:00,60.0,-99.9,30.12,SW,215,8.0,13.0,-999,-99.99,,,-99.99,,2013-05-11 00:52:00,
2013-05-10 18:01:00,60.0,-99.9,30.12,SSW,211,9.0,14.0,-999,-99.99,,,-99.99,,2013-05-11 01:01:00,
2013-05-10 18:11:00,61.0,-99.9,30.12,SW,220,9.0,14.0,-999,-99.99,,,-99.99,,2013-05-11 01:11:00,
2013-05-10 18:21:00,60.0,-99.9,30.12,SW,221,11.0,17.0,-999,-99.99,,,-99.99,,2013-05-11 01:21:00,
2013-05-10 18:32:00,59.0,-99.9,30.12,SW,217,9.0,15.0,-999,-99.99,,,-99.99,,2013-05-11 01:32:00,
2013-05-10 18:42:00,59.0,-99.9,30.12,SW,221,10.0,14.0,-999,-99.99,,,-99.99,,2013-05-11 01:42:00,
2013-05-10 18:52:00,60.0,-99.9,30.12,SW,217,8.0,13.0,-999,-99.99,,,-99.99,,2013-05-11 01:52:00,
2013-05-10 19:02:00,61.0,-99.9,30.12,SW,222,5.0,9.0,-999,-99.99,,,-99.99,,2013-05-11 02:02:00,
2013-05-10 19:12:00,60.0,-99.9,30.12,SSW,192,8.0,10.0,-999,-99.99,,,-99.99,,2013-05-11 02:12:00,
2013-05-10 19:22:00,60.0,-99.9,30.12,SSW,192,8.0,10.0,-999,-99.99,,,-99.99,,2013-05-11 02:22:00,
2013-05-10 19:32:00,59.0,-99.9,30.12,SSW,194,8.0,11.0,-999,-99.99,,,-99.99,,2013-05-11 02:32:00,
2013-05-10 19:42:00,59.0,-99.9,30.13,SSW,201,8.0,11.0,-999,-99.99,,,-99.99,,2013-05-11 02:42:00,
2013-05-10 19:52:00,59.0,-99.9,30.13,SSW,205,7.0,11.0,-999,-99.99,,,-99.99,,2013-05-11 02:52:00,
2013-05-10 20:01:00,57.0,-99.9,30.13,South,190,15.0,17.0,-999,-99.99,,,-99.99,,2013-05-11 03:01:00,
2013-05-10 20:11:00,56.0,-99.9,30.13,South,191,17.0,20.0,-999,-99.99,,,-99.99,,2013-05-11 03:11:00,
2013-05-10 20:21:00,56.0,-99.9,30.14,South,182,18.0,21.0,-999,-99.99,,,-99.99,,2013-05-11 03:21:00,
2013-05-10 20:33:00,56.0,-99.9,30.14,South,181,17.0,20.0,-999,-99.99,,,-99.99,,2013-05-11 03:33:00,
2013-05-10 20:43:00,56.0,-99.9,30.14,South,181,17.0,20.0,-999,-99.99,,,-99.99,,2013-05-11 03:43:00,
2013-05-10 20:53:00,56.0,-99.9,30.14,South,181,17.0,20.0,-999,-99.99,,,-99.99,,2013-05-11 03:53:00,
2013-05-10 21:03:00,55.0,-99.9,30.14,South,183,16.0,19.0,-999,-99.99,,,-99.99,,2013-05-11 04:03:00,
2013-05-10 21:12:00,56.0,-99.9,30.14,South,182,14.0,18.0,-999,-99.99,,,-99.99,,2013-05-11 04:12:00,
2013-05-10 21:23:00,56.0,-99.9,30.14,South,182,14.0,18.0,-999,-99.99,,,-99.99,,2013-05-11 04:23:00,
2013-05-10 21:33:00,56.0,-99.9,30.14,South,182,14.0,18.0,-999,-99.99,,,-99.99,,2013-05-11 04:33:00,
2013-05-10 21:43:00,56.0,-99.9,30.14,South,182,14.0,18.0,-999,-99.99,,,-99.99,,2013-05-11 04:43:00,
2013-05-10 22:12:00,54.0,-99.9,30.16,South,188,18.0,21.0,-999,-99.99,,,-99.99,,2013-05-11 05:12:00,
2013-05-10 22:22:00,54.0,-99.9,30.16,South,182,17.0,20.0,-999,-99.99,,,-99.99,,2013-05-11 05:22:00,
2013-05-10 22:32:00,54.0,-99.9,30.16,South,188,16.0,20.0,-999,-99.99,,,-99.99,,2013-05-11 05:32:00,
2013-05-10 22:43:00,54.0,-99.9,30.16,South,185,16.0,19.0,-999,-99.99,,,-99.99,,2013-05-11 05:43:00,
2013-05-10 22:52:00,53.0,-99.9,30.16,South,186,15.0,19.0,-999,-99.99,,,-99.99,,2013-05-11 05:52:00,
2013-05-10 23:02:00,53.0,-99.9,30.16,South,186,15.0,19.0,-999,-99.99,,,-99.99,,2013-05-11 06:02:00,
2013-05-10 23:12:00,53.0,-99.9,30.16,South,186,14.0,17.0,-999,-99.99,,,-99.99,,2013-05-11 06:12:00,
2013-05-10 23:22:00,53.0,-99.9,30.16,South,189,16.0,19.0,-999,-99.99,,,-99.99,,2013-05-11 06:22:00,
2013-05-10 23:32:00,53.0,-99.9,30.16,South,189,15.0,17.0,-999,-99.99,,,-99.99,,2013-05-11 06:32:00,
2013-05-10 23:42:00,53.0,-99.9,30.16,South,189,15.0,19.0,-999,-99.99,,,-99.99,,2013-05-11 06:42:00,
2013-05-10 23:53:00,52.0,-99.9,30.16,South,181,16.0,20.0,-999,-99.99,,,-99.99,,2013-05-11 06:53:00,